createdAt,value
2016-05-16T00:00:27.740Z,49.77
2016-05-16T00:01:27.899Z,49.77
2016-05-16T00:02:27.918Z,49.9
2016-05-16T00:03:27.904Z,49.9
2016-05-16T00:04:27.923Z,49.9
2016-05-16T00:05:27.925Z,49.8
2016-05-16T00:06:27.945Z,49.7
2016-05-16T00:07:27.962Z,49.8
2016-05-16T00:08:27.981Z,49.8
2016-05-16T00:09:27.983Z,49.8
2016-05-16T00:10:27.986Z,49.8
2016-05-16T00:11:27.832Z,49.9
2016-05-16T00:12:28.007Z,49.9
2016-05-16T00:13:28.011Z,49.96
2016-05-16T00:14:28.013Z,49.9
2016-05-16T00:15:27.875Z,49.68
2016-05-16T00:16:28.033Z,49.8
2016-05-16T00:17:28.052Z,49.68
2016-05-16T00:18:28.054Z,49.68
2016-05-16T00:19:28.072Z,49.8
2016-05-16T00:20:28.091Z,49.77
2016-05-16T00:21:28.094Z,49.8
2016-05-16T00:22:28.112Z,49.87
2016-05-16T00:23:28.115Z,49.87
2016-05-16T00:24:27.977Z,49.9
2016-05-16T00:25:28.121Z,49.99
2016-05-16T00:26:28.138Z,49.8
2016-05-16T00:27:28.141Z,49.9
2016-05-16T00:28:28.160Z,49.9
2016-05-16T00:29:28.162Z,49.9
2016-05-16T00:30:28.165Z,49.8
2016-05-16T00:31:28.183Z,49.9
2016-05-16T00:32:28.202Z,49.7
2016-05-16T00:33:28.204Z,49.87
2016-05-16T00:34:28.207Z,49.77
2016-05-16T00:35:28.412Z,49.9
2016-05-16T00:36:28.212Z,49.9
2016-05-16T00:37:28.246Z,49.77
2016-05-16T00:38:28.233Z,49.8
2016-05-16T00:39:28.267Z,49.8
2016-05-16T00:40:28.254Z,49.87
2016-05-16T00:41:28.289Z,49.9
2016-05-16T00:42:28.134Z,49.9
2016-05-16T00:43:28.325Z,49.87
2016-05-16T00:44:28.311Z,49.9
2016-05-16T00:45:28.330Z,49.8
2016-05-16T00:46:28.317Z,49.77
2016-05-16T00:47:28.352Z,49.77
2016-05-16T00:48:28.354Z,49.99
2016-05-16T00:49:28.357Z,49.77
2016-05-16T00:50:28.360Z,49.8
2016-05-16T00:51:28.393Z,49.87
2016-05-16T00:52:28.208Z,49.8
2016-05-16T00:53:28.383Z,49.9
2016-05-16T00:54:28.386Z,49.87
2016-05-16T00:55:28.419Z,49.77
2016-05-16T00:56:28.407Z,49.8
2016-05-16T00:57:28.425Z,49.9
2016-05-16T00:58:28.444Z,49.8
2016-05-16T00:59:28.445Z,49.8
2016-05-16T01:00:28.479Z,49.77
2016-05-16T01:01:28.467Z,49.68
2016-05-16T01:02:28.470Z,49.77
2016-05-16T01:03:28.473Z,49.77
2016-05-16T01:04:28.490Z,49.7
2016-05-16T01:05:28.868Z,49.8
2016-05-16T01:06:28.511Z,49.8
2016-05-16T01:07:28.531Z,49.8
2016-05-16T01:08:28.548Z,49.87
2016-05-16T01:09:28.567Z,49.77
2016-05-16T01:10:28.554Z,49.77
2016-05-16T01:11:28.572Z,49.77
2016-05-16T01:12:28.575Z,49.77
2016-05-16T01:13:28.578Z,49.87
2016-05-16T01:14:28.581Z,49.77
2016-05-16T01:15:28.598Z,49.87
2016-05-16T01:16:28.600Z,49.87
2016-05-16T01:17:28.619Z,49.87
2016-05-16T01:18:28.606Z,49.77
2016-05-16T01:19:28.625Z,49.87
2016-05-16T01:20:28.472Z,49.87
2016-05-16T01:21:28.661Z,49.77
2016-05-16T01:22:28.648Z,49.87
2016-05-16T01:23:28.683Z,49.77
2016-05-16T01:24:28.670Z,49.68
2016-05-16T01:25:28.688Z,49.87
2016-05-16T01:26:28.690Z,49.87
2016-05-16T01:27:28.710Z,49.77
2016-05-16T01:28:28.711Z,49.96
2016-05-16T01:29:28.730Z,49.87
2016-05-16T01:30:28.732Z,49.87
2016-05-16T01:31:28.735Z,49.87
2016-05-16T01:32:28.754Z,49.87
2016-05-16T01:33:28.616Z,49.87
2016-05-16T01:34:28.790Z,49.87
2016-05-16T01:35:28.839Z,49.96
2016-05-16T01:36:28.795Z,49.87
2016-05-16T01:37:28.815Z,49.87
2016-05-16T01:38:28.817Z,49.77
2016-05-16T01:39:28.819Z,49.96
2016-05-16T01:40:28.823Z,49.87
2016-05-16T01:41:28.856Z,49.77
2016-05-16T01:42:28.842Z,49.87
2016-05-16T01:43:28.862Z,49.87
2016-05-16T01:44:28.864Z,49.77
2016-05-16T01:45:28.882Z,49.87
2016-05-16T01:46:28.886Z,49.77
2016-05-16T01:47:28.919Z,49.87
2016-05-16T01:48:28.905Z,49.77
2016-05-16T01:49:28.909Z,49.87
2016-05-16T01:50:29.614Z,49.87
2016-05-16T01:51:28.804Z,49.87
2016-05-16T01:52:29.019Z,49.77
2016-05-16T01:53:28.906Z,49.96
2016-05-16T01:54:29.104Z,49.87
2016-05-16T01:55:29.148Z,49.77
2016-05-16T01:56:29.203Z,49.77
2016-05-16T01:57:29.063Z,49.77
2016-05-16T01:58:29.253Z,49.87
2016-05-16T01:59:29.270Z,49.87
2016-05-16T02:00:29.303Z,49.87
2016-05-16T02:01:29.157Z,49.77
2016-05-16T02:02:29.322Z,49.77
2016-05-16T02:03:29.330Z,49.77
2016-05-16T02:04:29.354Z,49.77
2016-05-16T02:05:29.424Z,49.87
2016-05-16T02:06:29.382Z,49.77
2016-05-16T02:07:29.387Z,49.87
2016-05-16T02:08:29.407Z,49.87
2016-05-16T02:09:29.412Z,49.87
2016-05-16T02:10:29.417Z,49.87
2016-05-16T02:11:29.468Z,49.77
2016-05-16T02:12:29.455Z,49.87
2016-05-16T02:13:29.458Z,49.87
2016-05-16T02:14:29.478Z,49.77
2016-05-16T02:15:29.465Z,49.77
2016-05-16T02:16:29.484Z,49.87
2016-05-16T02:17:29.486Z,49.96
2016-05-16T02:18:29.505Z,49.87
2016-05-16T02:19:29.523Z,49.87
2016-05-16T02:20:29.541Z,49.68
2016-05-16T02:21:29.545Z,49.68
2016-05-16T02:22:29.547Z,49.87
2016-05-16T02:23:29.564Z,49.87
2016-05-16T02:24:29.553Z,49.68
2016-05-16T02:25:29.570Z,49.68
2016-05-16T02:26:29.448Z,49.77
2016-05-16T02:27:29.591Z,49.87
2016-05-16T02:28:29.594Z,49.77
2016-05-16T02:29:29.597Z,49.77
2016-05-16T02:30:29.615Z,49.77
2016-05-16T02:31:29.633Z,49.77
2016-05-16T02:32:29.652Z,49.77
2016-05-16T02:33:29.654Z,49.77
2016-05-16T02:34:29.486Z,49.77
2016-05-16T02:35:29.660Z,49.77
2016-05-16T02:36:29.678Z,49.87
2016-05-16T02:37:29.680Z,49.87
2016-05-16T02:38:29.699Z,49.77
2016-05-16T02:39:29.702Z,49.77
2016-05-16T02:40:29.721Z,49.77
2016-05-16T02:41:29.707Z,49.87
2016-05-16T02:42:29.740Z,49.87
2016-05-16T02:43:29.728Z,49.77
2016-05-16T02:44:29.606Z,49.77
2016-05-16T02:45:29.749Z,49.77
2016-05-16T02:46:29.611Z,49.87
2016-05-16T02:47:29.771Z,49.87
2016-05-16T02:48:29.788Z,49.87
2016-05-16T02:49:29.635Z,49.77
2016-05-16T02:50:29.793Z,49.77
2016-05-16T02:51:29.812Z,49.77
2016-05-16T02:52:29.845Z,49.87
2016-05-16T02:53:29.834Z,49.77
2016-05-16T02:54:29.851Z,49.77
2016-05-16T02:55:29.854Z,49.87
2016-05-16T02:56:29.856Z,49.87
2016-05-16T02:57:29.859Z,49.87
2016-05-16T02:58:29.878Z,49.77
2016-05-16T02:59:29.881Z,49.87
2016-05-16T03:00:29.899Z,49.77
2016-05-16T03:01:29.902Z,49.87
2016-05-16T03:02:29.905Z,49.87
2016-05-16T03:03:29.922Z,49.77
2016-05-16T03:04:29.941Z,49.77
2016-05-16T03:05:30.005Z,49.87
2016-05-16T03:06:29.977Z,49.77
2016-05-16T03:07:29.964Z,49.77
2016-05-16T03:08:29.967Z,49.87
2016-05-16T03:09:29.985Z,49.77
2016-05-16T03:10:29.988Z,49.87
2016-05-16T03:11:30.007Z,49.77
2016-05-16T03:12:29.994Z,49.87
2016-05-16T03:13:30.027Z,49.77
2016-05-16T03:14:30.030Z,49.77
2016-05-16T03:15:30.032Z,49.87
2016-05-16T03:16:30.051Z,49.68
2016-05-16T03:17:30.070Z,49.77
2016-05-16T03:18:30.057Z,49.68
2016-05-16T03:19:30.075Z,49.77
2016-05-16T03:20:30.656Z,49.77
2016-05-16T03:21:30.081Z,49.77
2016-05-16T03:22:30.098Z,49.77
2016-05-16T03:23:30.101Z,49.87
2016-05-16T03:24:30.120Z,49.77
2016-05-16T03:25:30.138Z,49.77
2016-05-16T03:26:30.125Z,49.87
2016-05-16T03:27:30.143Z,49.87
2016-05-16T03:28:30.145Z,49.87
2016-05-16T03:29:30.180Z,49.87
2016-05-16T03:30:30.167Z,49.68
2016-05-16T03:31:30.186Z,49.68
2016-05-16T03:32:30.188Z,49.87
2016-05-16T03:33:30.206Z,49.68
2016-05-16T03:34:30.053Z,49.87
2016-05-16T03:35:30.211Z,49.68
2016-05-16T03:36:30.230Z,49.77
2016-05-16T03:37:30.249Z,49.77
2016-05-16T03:38:30.235Z,49.68
2016-05-16T03:39:30.254Z,49.87
2016-05-16T03:40:30.272Z,49.68
2016-05-16T03:41:30.274Z,49.87
2016-05-16T03:42:30.293Z,49.87
2016-05-16T03:43:30.296Z,49.87
2016-05-16T03:44:30.299Z,49.77
2016-05-16T03:45:30.316Z,49.77
2016-05-16T03:46:30.319Z,49.77
2016-05-16T03:47:30.354Z,49.77
2016-05-16T03:48:30.184Z,49.77
2016-05-16T03:49:30.359Z,49.77
2016-05-16T03:50:30.362Z,49.77
2016-05-16T03:51:30.364Z,49.77
2016-05-16T03:52:30.367Z,49.58
2016-05-16T03:53:30.385Z,49.58
2016-05-16T03:54:30.387Z,49.68
2016-05-16T03:55:30.406Z,49.77
2016-05-16T03:56:30.425Z,49.77
2016-05-16T03:57:30.412Z,49.77
2016-05-16T03:58:30.430Z,49.58
2016-05-16T03:59:30.448Z,49.77
2016-05-16T04:00:30.450Z,49.77
2016-05-16T04:01:30.469Z,49.77
2016-05-16T04:02:30.472Z,49.68
2016-05-16T04:03:30.475Z,49.77
2016-05-16T04:04:30.352Z,49.77
2016-05-16T04:05:31.183Z,49.58
2016-05-16T04:06:30.514Z,49.77
2016-05-16T04:07:30.533Z,49.68
2016-05-16T04:08:30.535Z,49.68
2016-05-16T04:09:30.553Z,49.77
2016-05-16T04:10:30.555Z,49.68
2016-05-16T04:11:30.402Z,49.77
2016-05-16T04:12:30.561Z,49.58
2016-05-16T04:13:30.579Z,49.77
2016-05-16T04:14:30.582Z,49.87
2016-05-16T04:15:30.585Z,49.68
2016-05-16T04:16:30.604Z,49.68
2016-05-16T04:17:30.606Z,49.68
2016-05-16T04:18:30.624Z,49.87
2016-05-16T04:19:30.470Z,49.68
2016-05-16T04:20:30.645Z,49.68
2016-05-16T04:21:30.663Z,49.68
2016-05-16T04:22:30.666Z,49.77
2016-05-16T04:23:30.512Z,49.77
2016-05-16T04:24:30.671Z,49.68
2016-05-16T04:25:30.690Z,49.77
2016-05-16T04:26:30.676Z,49.68
2016-05-16T04:27:30.711Z,49.77
2016-05-16T04:28:30.729Z,49.58
2016-05-16T04:29:30.732Z,49.77
2016-05-16T04:30:30.734Z,49.96
2016-05-16T04:31:30.753Z,49.77
2016-05-16T04:32:30.755Z,49.77
2016-05-16T04:33:30.617Z,49.68
2016-05-16T04:34:30.777Z,49.68
2016-05-16T04:35:31.076Z,49.68
2016-05-16T04:36:30.782Z,49.87
2016-05-16T04:37:30.800Z,49.77
2016-05-16T04:38:30.647Z,49.77
2016-05-16T04:39:30.806Z,49.68
2016-05-16T04:40:30.824Z,49.87
2016-05-16T04:41:30.827Z,49.68
2016-05-16T04:42:30.830Z,49.77
2016-05-16T04:43:30.847Z,49.68
2016-05-16T04:44:30.866Z,49.87
2016-05-16T04:45:30.884Z,49.68
2016-05-16T04:46:30.887Z,49.68
2016-05-16T04:47:30.890Z,49.87
2016-05-16T04:48:30.893Z,49.87
2016-05-16T04:49:30.910Z,49.68
2016-05-16T04:50:31.413Z,49.68
2016-05-16T04:51:30.931Z,49.87
2016-05-16T04:52:30.935Z,49.68
2016-05-16T04:53:30.953Z,49.87
2016-05-16T04:54:30.956Z,49.77
2016-05-16T04:55:30.817Z,49.68
2016-05-16T04:56:30.976Z,49.68
2016-05-16T04:57:30.979Z,49.87
2016-05-16T04:58:30.841Z,49.87
2016-05-16T04:59:31.000Z,49.68
2016-05-16T05:00:31.003Z,49.77
2016-05-16T05:01:31.021Z,49.68
2016-05-16T05:02:31.023Z,49.58
2016-05-16T05:03:30.886Z,49.77
2016-05-16T05:04:31.028Z,49.48
2016-05-16T05:05:30.906Z,49.87
2016-05-16T05:06:31.050Z,49.68
2016-05-16T05:07:31.084Z,49.58
2016-05-16T05:08:31.086Z,49.68
2016-05-16T05:09:31.105Z,49.68
2016-05-16T05:10:31.108Z,49.68
2016-05-16T05:11:31.126Z,49.77
2016-05-16T05:12:30.957Z,49.68
2016-05-16T05:13:31.132Z,49.77
2016-05-16T05:14:31.135Z,49.68
2016-05-16T05:15:30.981Z,49.77
2016-05-16T05:16:30.999Z,49.58
2016-05-16T05:17:31.157Z,49.68
2016-05-16T05:18:31.176Z,49.87
2016-05-16T05:19:31.194Z,49.68
2016-05-16T05:20:31.338Z,49.77
2016-05-16T05:21:31.215Z,49.58
2016-05-16T05:22:31.234Z,49.68
2016-05-16T05:23:31.220Z,49.58
2016-05-16T05:24:31.224Z,49.68
2016-05-16T05:25:31.226Z,49.77
2016-05-16T05:26:31.245Z,49.58
2016-05-16T05:27:31.262Z,49.77
2016-05-16T05:28:31.265Z,49.77
2016-05-16T05:29:31.284Z,49.48
2016-05-16T05:30:31.286Z,49.48
2016-05-16T05:31:31.289Z,49.58
2016-05-16T05:32:31.308Z,49.58
2016-05-16T05:33:31.311Z,49.48
2016-05-16T05:34:31.345Z,49.58
2016-05-16T05:35:31.331Z,49.48
2016-05-16T05:36:31.349Z,49.68
2016-05-16T05:37:31.181Z,49.68
2016-05-16T05:38:31.370Z,49.68
2016-05-16T05:39:31.202Z,49.68
2016-05-16T05:40:31.391Z,49.68
2016-05-16T05:41:31.378Z,49.58
2016-05-16T05:42:31.412Z,49.58
2016-05-16T05:43:31.416Z,49.68
2016-05-16T05:44:31.433Z,49.68
2016-05-16T05:45:31.421Z,49.68
2016-05-16T05:46:31.438Z,49.58
2016-05-16T05:47:31.458Z,49.58
2016-05-16T05:48:31.443Z,49.68
2016-05-16T05:49:31.463Z,49.68
2016-05-16T05:50:31.918Z,49.58
2016-05-16T05:51:31.484Z,49.68
2016-05-16T05:52:31.486Z,49.68
2016-05-16T05:53:31.333Z,49.58
2016-05-16T05:54:31.507Z,49.68
2016-05-16T05:55:31.354Z,49.68
2016-05-16T05:56:31.529Z,49.68
2016-05-16T05:57:31.531Z,49.68
2016-05-16T05:58:31.549Z,49.48
2016-05-16T05:59:31.567Z,49.68
2016-05-16T06:00:31.429Z,49.58
2016-05-16T06:01:31.573Z,49.58
2016-05-16T06:02:31.592Z,49.68
2016-05-16T06:03:31.594Z,49.58
2016-05-16T06:04:31.597Z,49.58
2016-05-16T06:05:31.615Z,49.58
2016-05-16T06:06:31.617Z,49.58
2016-05-16T06:07:31.620Z,49.58
2016-05-16T06:08:31.639Z,49.58
2016-05-16T06:09:31.641Z,49.77
2016-05-16T06:10:31.660Z,49.58
2016-05-16T06:11:31.662Z,49.19
2016-05-16T06:12:31.681Z,49.29
2016-05-16T06:13:31.699Z,49.77
2016-05-16T06:14:31.702Z,49.29
2016-05-16T06:15:31.719Z,49.19
2016-05-16T06:16:31.722Z,49.19
2016-05-16T06:17:31.553Z,49.19
2016-05-16T06:18:31.743Z,49.19
2016-05-16T06:19:31.747Z,49.19
2016-05-16T06:20:31.733Z,49.19
2016-05-16T06:21:31.783Z,49.19
2016-05-16T06:22:31.770Z,49.19
2016-05-16T06:23:31.773Z,49.19
2016-05-16T06:24:31.635Z,49.29
2016-05-16T06:25:31.793Z,49.19
2016-05-16T06:26:31.812Z,49
2016-05-16T06:27:31.815Z,49.1
2016-05-16T06:28:31.676Z,49.19
2016-05-16T06:29:31.836Z,49.1
2016-05-16T06:30:31.854Z,49
2016-05-16T06:31:31.856Z,49.1
2016-05-16T06:32:31.860Z,49.1
2016-05-16T06:33:31.877Z,49.1
2016-05-16T06:34:31.725Z,49.1
2016-05-16T06:35:31.821Z,49.1
2016-05-16T06:36:31.917Z,49.19
2016-05-16T06:37:31.920Z,49
2016-05-16T06:38:31.922Z,49.19
2016-05-16T06:39:31.941Z,49
2016-05-16T06:40:31.928Z,48.9
2016-05-16T06:41:31.947Z,48.9
2016-05-16T06:42:31.964Z,48.83
2016-05-16T06:43:31.967Z,49
2016-05-16T06:44:31.969Z,48.9
2016-05-16T06:45:31.972Z,49.02
2016-05-16T06:46:31.991Z,48.93
2016-05-16T06:47:31.994Z,48.9
2016-05-16T06:48:31.856Z,49
2016-05-16T06:49:32.015Z,48.9
2016-05-16T06:50:31.861Z,49
2016-05-16T06:51:32.036Z,49.12
2016-05-16T06:52:32.054Z,49.02
2016-05-16T06:53:32.072Z,48.9
2016-05-16T06:54:32.074Z,49.02
2016-05-16T06:55:32.077Z,49.02
2016-05-16T06:56:32.080Z,48.93
2016-05-16T06:57:32.099Z,48.93
2016-05-16T06:58:32.101Z,48.9
2016-05-16T06:59:32.120Z,49
2016-05-16T07:00:32.122Z,48.74
2016-05-16T07:01:32.140Z,48.74
2016-05-16T07:02:32.190Z,48.64
2016-05-16T07:03:32.145Z,48.74
2016-05-16T07:04:32.165Z,48.64
2016-05-16T07:05:32.198Z,49.12
2016-05-16T07:06:32.185Z,48.64
2016-05-16T07:07:32.189Z,48.93
2016-05-16T07:08:32.191Z,49.02
2016-05-16T07:09:32.209Z,48.93
2016-05-16T07:10:32.211Z,48.64
2016-05-16T07:11:32.230Z,48.74
2016-05-16T07:12:32.233Z,48.93
2016-05-16T07:13:32.251Z,48.83
2016-05-16T07:14:32.238Z,48.74
2016-05-16T07:15:32.272Z,48.83
2016-05-16T07:16:32.275Z,48.64
2016-05-16T07:17:32.152Z,49.02
2016-05-16T07:18:32.296Z,48.83
2016-05-16T07:19:32.313Z,48.64
2016-05-16T07:20:32.316Z,48.74
2016-05-16T07:21:32.335Z,48.83
2016-05-16T07:22:32.182Z,48.74
2016-05-16T07:23:32.341Z,48.83
2016-05-16T07:24:32.202Z,48.74
2016-05-16T07:25:32.205Z,48.64
2016-05-16T07:26:32.395Z,49.12
2016-05-16T07:27:32.382Z,49.12
2016-05-16T07:28:32.401Z,48.83
2016-05-16T07:29:32.403Z,48.93
2016-05-16T07:30:32.422Z,48.74
2016-05-16T07:31:32.409Z,48.93
2016-05-16T07:32:32.426Z,48.74
2016-05-16T07:33:32.429Z,48.93
2016-05-16T07:34:32.448Z,48.83
2016-05-16T07:35:32.295Z,48.74
2016-05-16T07:36:32.453Z,48.93
2016-05-16T07:37:32.487Z,49.02
2016-05-16T07:38:32.490Z,48.74
2016-05-16T07:39:32.493Z,48.74
2016-05-16T07:40:32.496Z,48.83
2016-05-16T07:41:32.513Z,48.83
2016-05-16T07:42:32.533Z,48.74
2016-05-16T07:43:32.535Z,48.44
2016-05-16T07:44:32.553Z,48.64
2016-05-16T07:45:32.540Z,48.83
2016-05-16T07:46:32.574Z,48.64
2016-05-16T07:47:32.560Z,48.74
2016-05-16T07:48:32.579Z,48.44
2016-05-16T07:49:32.442Z,48.74
2016-05-16T07:50:32.929Z,48.83
2016-05-16T07:51:32.603Z,48.44
2016-05-16T07:52:32.621Z,48.83
2016-05-16T07:53:32.624Z,48.64
2016-05-16T07:54:32.643Z,48.74
2016-05-16T07:55:32.645Z,49.02
2016-05-16T07:56:32.648Z,48.93
2016-05-16T07:57:32.665Z,48.74
2016-05-16T07:58:32.669Z,48.74
2016-05-16T07:59:32.672Z,48.74
2016-05-16T08:00:32.674Z,48.54
2016-05-16T08:01:32.709Z,48.74
2016-05-16T08:02:32.695Z,48.64
2016-05-16T08:03:32.714Z,49.02
2016-05-16T08:04:32.731Z,48.74
2016-05-16T08:05:32.750Z,48.93
2016-05-16T08:06:32.753Z,48.74
2016-05-16T08:07:32.756Z,48.74
2016-05-16T08:08:32.773Z,48.93
2016-05-16T08:09:32.776Z,48.83
2016-05-16T08:10:32.795Z,48.64
2016-05-16T08:11:32.781Z,48.83
2016-05-16T08:12:32.644Z,48.83
2016-05-16T08:13:32.818Z,48.93
2016-05-16T08:14:32.837Z,48.74
2016-05-16T08:15:32.684Z,48.64
2016-05-16T08:16:32.858Z,48.74
2016-05-16T08:17:32.845Z,48.74
2016-05-16T08:18:32.863Z,48.64
2016-05-16T08:19:41.569Z,48.74
2016-05-16T08:20:32.728Z,48.83
2016-05-16T08:21:32.730Z,48.83
2016-05-16T08:22:32.733Z,48.83
2016-05-16T08:23:32.908Z,48.83
2016-05-16T08:24:32.911Z,48.74
2016-05-16T08:25:32.929Z,48.93
2016-05-16T08:26:32.947Z,48.74
2016-05-16T08:27:32.949Z,48.83
2016-05-16T08:28:32.984Z,48.93
2016-05-16T08:29:32.954Z,48.83
2016-05-16T08:30:32.832Z,48.93
2016-05-16T08:31:32.993Z,48.83
2016-05-16T08:32:33.010Z,48.83
2016-05-16T08:33:33.045Z,48.74
2016-05-16T08:34:33.015Z,48.74
2016-05-16T08:35:33.237Z,48.83
2016-05-16T08:36:33.037Z,48.83
2016-05-16T08:37:33.039Z,48.83
2016-05-16T08:38:32.901Z,48.64
2016-05-16T08:39:33.076Z,48.74
2016-05-16T08:40:33.078Z,48.64
2016-05-16T08:41:33.081Z,48.64
2016-05-16T08:42:33.100Z,48.54
2016-05-16T08:43:33.102Z,48.93
2016-05-16T08:44:33.106Z,48.93
2016-05-16T08:45:33.122Z,48.83
2016-05-16T08:46:33.110Z,48.83
2016-05-16T08:47:33.129Z,48.83
2016-05-16T08:48:33.147Z,48.83
2016-05-16T08:49:33.166Z,48.74
2016-05-16T08:50:33.152Z,48.93
2016-05-16T08:51:33.186Z,48.83
2016-05-16T08:52:33.205Z,48.74
2016-05-16T08:53:33.191Z,48.74
2016-05-16T08:54:33.054Z,48.74
2016-05-16T08:55:33.229Z,48.74
2016-05-16T08:56:33.232Z,48.74
2016-05-16T08:57:33.234Z,48.64
2016-05-16T08:58:33.252Z,48.74
2016-05-16T08:59:33.254Z,48.74
2016-05-16T09:00:33.101Z,48.74
2016-05-16T09:01:33.119Z,48.74
2016-05-16T09:02:33.262Z,48.74
2016-05-16T09:03:33.282Z,48.74
2016-05-16T09:04:33.315Z,48.83
2016-05-16T09:05:33.318Z,48.74
2016-05-16T09:06:33.164Z,48.54
2016-05-16T09:07:33.323Z,48.74
2016-05-16T09:08:33.326Z,48.74
2016-05-16T09:09:33.344Z,48.83
2016-05-16T09:10:33.347Z,48.64
2016-05-16T09:11:33.350Z,48.74
2016-05-16T09:12:33.415Z,48.74
2016-05-16T09:13:33.386Z,48.93
2016-05-16T09:14:33.405Z,48.93
2016-05-16T09:15:33.407Z,48.83
2016-05-16T09:16:33.425Z,48.83
2016-05-16T09:17:33.427Z,48.83
2016-05-16T09:18:33.430Z,48.83
2016-05-16T09:19:33.450Z,48.93
2016-05-16T09:20:33.467Z,48.83
2016-05-16T09:21:33.314Z,48.83
2016-05-16T09:22:33.472Z,48.83
2016-05-16T09:23:33.491Z,48.83
2016-05-16T09:24:33.478Z,48.54
2016-05-16T09:25:33.497Z,48.83
2016-05-16T09:26:33.499Z,48.83
2016-05-16T09:27:33.518Z,48.64
2016-05-16T09:28:33.521Z,48.83
2016-05-16T09:29:33.538Z,48.74
2016-05-16T09:30:33.541Z,48.83
2016-05-16T09:31:33.575Z,48.64
2016-05-16T09:32:33.421Z,48.64
2016-05-16T09:33:33.596Z,48.74
2016-05-16T09:34:33.599Z,48.74
2016-05-16T09:35:33.446Z,48.74
2016-05-16T09:36:33.604Z,48.74
2016-05-16T09:37:33.623Z,48.74
2016-05-16T09:38:33.640Z,48.64
2016-05-16T09:39:33.659Z,48.83
2016-05-16T09:40:33.646Z,48.74
2016-05-16T09:41:33.492Z,48.83
2016-05-16T09:42:33.651Z,48.74
2016-05-16T09:43:33.670Z,48.54
2016-05-16T09:44:33.704Z,48.54
2016-05-16T09:45:33.706Z,48.64
2016-05-16T09:46:33.694Z,48.83
2016-05-16T09:47:33.711Z,48.74
2016-05-16T09:48:33.730Z,48.74
2016-05-16T09:49:33.733Z,48.74
2016-05-16T09:50:33.735Z,48.74
2016-05-16T09:51:33.770Z,48.74
2016-05-16T09:52:33.757Z,48.74
2016-05-16T09:53:33.619Z,48.74
2016-05-16T09:54:33.793Z,48.74
2016-05-16T09:55:33.780Z,48.74
2016-05-16T09:56:33.799Z,48.74
2016-05-16T09:57:33.817Z,48.74
2016-05-16T09:58:33.820Z,48.74
2016-05-16T09:59:33.838Z,48.74
2016-05-16T10:00:33.841Z,48.74
2016-05-16T10:01:33.843Z,48.64
2016-05-16T10:02:33.862Z,48.64
2016-05-16T10:03:33.707Z,48.74
2016-05-16T10:04:33.867Z,48.64
2016-05-16T10:05:33.713Z,48.74
2016-05-16T10:06:33.888Z,48.74
2016-05-16T10:07:33.907Z,48.64
2016-05-16T10:08:33.909Z,48.74
2016-05-16T10:09:33.771Z,48.74
2016-05-16T10:10:33.914Z,48.74
2016-05-16T10:11:33.948Z,48.83
2016-05-16T10:12:33.951Z,48.74
2016-05-16T10:13:34.329Z,48.74
2016-05-16T10:14:34.848Z,48.93
2016-05-16T10:15:34.225Z,48.83
2016-05-16T10:16:33.993Z,48.83
2016-05-16T10:17:42.464Z,48.93
2016-05-16T10:18:34.014Z,48.64
2016-05-16T10:19:34.016Z,48.74
2016-05-16T10:20:34.286Z,48.74
2016-05-16T10:21:34.038Z,48.74
2016-05-16T10:22:34.056Z,48.83
2016-05-16T10:23:34.059Z,48.83
2016-05-16T10:24:34.077Z,48.74
2016-05-16T10:25:34.064Z,48.83
2016-05-16T10:26:34.098Z,48.64
2016-05-16T10:27:34.101Z,48.74
2016-05-16T10:28:34.104Z,48.64
2016-05-16T10:29:34.107Z,48.74
2016-05-16T10:30:34.125Z,48.74
2016-05-16T10:31:34.127Z,48.74
2016-05-16T10:32:34.146Z,48.74
2016-05-16T10:33:34.148Z,48.74
2016-05-16T10:34:34.010Z,48.64
2016-05-16T10:35:34.168Z,48.74
2016-05-16T10:36:34.188Z,48.64
2016-05-16T10:37:34.190Z,48.93
2016-05-16T10:38:34.208Z,48.74
2016-05-16T10:39:34.212Z,48.83
2016-05-16T10:40:34.230Z,48.74
2016-05-16T10:41:34.232Z,48.83
2016-05-16T10:42:34.251Z,48.64
2016-05-16T10:43:34.237Z,48.74
2016-05-16T10:44:34.256Z,48.74
2016-05-16T10:45:34.258Z,48.83
2016-05-16T10:46:34.120Z,48.74
2016-05-16T10:47:34.295Z,48.44
2016-05-16T10:48:34.314Z,48.44
2016-05-16T10:49:34.300Z,48.64
2016-05-16T10:50:34.319Z,48.64
2016-05-16T10:51:34.321Z,48.54
2016-05-16T10:52:34.325Z,48.47
2016-05-16T10:53:34.358Z,48.47
2016-05-16T10:54:34.189Z,48.47
2016-05-16T10:55:34.208Z,48.47
2016-05-16T10:56:34.366Z,48.37
2016-05-16T10:57:34.268Z,48.57
2016-05-16T10:58:34.475Z,48.54
2016-05-16T10:59:34.539Z,48.66
2016-05-16T11:00:34.605Z,48.64
2016-05-16T11:01:34.638Z,48.57
2016-05-16T11:02:34.694Z,48.64
2016-05-16T11:03:34.729Z,48.64
2016-05-16T11:04:34.748Z,48.64
2016-05-16T11:05:34.628Z,48.64
2016-05-16T11:06:34.804Z,48.64
2016-05-16T11:07:34.797Z,48.76
2016-05-16T11:08:34.822Z,48.44
2016-05-16T11:09:34.845Z,48.57
2016-05-16T11:10:34.839Z,48.64
2016-05-16T11:11:34.863Z,48.64
2016-05-16T11:12:34.884Z,48.64
2016-05-16T11:13:34.888Z,48.64
2016-05-16T11:14:34.894Z,48.64
2016-05-16T11:15:34.929Z,48.64
2016-05-16T11:16:34.920Z,48.44
2016-05-16T11:17:34.938Z,48.66
2016-05-16T11:18:34.941Z,48.54
2016-05-16T11:19:34.946Z,48.83
2016-05-16T11:20:35.136Z,48.74
2016-05-16T11:21:34.827Z,48.44
2016-05-16T11:22:34.988Z,48.64
2016-05-16T11:23:35.005Z,48.57
2016-05-16T11:24:35.025Z,48.54
2016-05-16T11:25:35.027Z,48.64
2016-05-16T11:26:35.030Z,48.57
2016-05-16T11:27:35.048Z,48.47
2016-05-16T11:28:35.051Z,48.57
2016-05-16T11:29:35.053Z,48.57
2016-05-16T11:30:35.073Z,48.47
2016-05-16T11:31:35.075Z,48.66
2016-05-16T11:32:34.922Z,48.57
2016-05-16T11:33:35.097Z,48.57
2016-05-16T11:34:35.099Z,48.66
2016-05-16T11:35:35.149Z,48.57
2016-05-16T11:36:35.119Z,48.76
2016-05-16T11:37:35.138Z,48.08
2016-05-16T11:38:35.157Z,47.99
2016-05-16T11:39:35.160Z,48.18
2016-05-16T11:40:35.146Z,48.76
2016-05-16T11:41:35.180Z,48.08
2016-05-16T11:42:35.182Z,48.18
2016-05-16T11:43:35.185Z,48.28
2016-05-16T11:44:35.048Z,48.37
2016-05-16T11:45:35.206Z,48.37
2016-05-16T11:46:35.225Z,48.37
2016-05-16T11:47:35.071Z,48.28
2016-05-16T11:48:35.246Z,48.28
2016-05-16T11:49:35.249Z,48.18
2016-05-16T11:50:35.298Z,48.21
2016-05-16T11:51:35.520Z,48.18
2016-05-16T11:52:35.147Z,48.08
2016-05-16T11:53:35.290Z,48.3
2016-05-16T11:54:35.309Z,48.37
2016-05-16T11:55:35.296Z,48.37
2016-05-16T11:56:35.314Z,48.37
2016-05-16T11:57:35.317Z,48.28
2016-05-16T11:58:35.335Z,48.37
2016-05-16T11:59:35.182Z,48.37
2016-05-16T12:00:35.200Z,48.37
2016-05-16T12:01:35.359Z,48.21
2016-05-16T12:02:35.378Z,48.28
2016-05-16T12:03:35.395Z,48.37
2016-05-16T12:04:35.398Z,48.3
2016-05-16T12:05:35.697Z,48.3
2016-05-16T12:06:35.419Z,48.18
2016-05-16T12:07:35.422Z,48.08
2016-05-16T12:08:35.284Z,47.99
2016-05-16T12:09:35.318Z,48.01
2016-05-16T12:10:35.446Z,48.08
2016-05-16T12:11:35.464Z,48.01
2016-05-16T12:12:35.482Z,47.53
2016-05-16T12:13:35.485Z,47.81
2016-05-16T12:14:35.488Z,47.53
2016-05-16T12:15:35.507Z,47.81
2016-05-16T12:16:35.368Z,47.43
2016-05-16T12:17:35.512Z,47.72
2016-05-16T12:18:35.545Z,47.43
2016-05-16T12:19:35.532Z,47.43
2016-05-16T12:20:35.565Z,47.63
2016-05-16T12:21:35.553Z,47.81
2016-05-16T12:22:35.572Z,47.63
2016-05-16T12:23:35.590Z,47.72
2016-05-16T12:24:35.593Z,47.63
2016-05-16T12:25:35.595Z,47.91
2016-05-16T12:26:35.457Z,48.01
2016-05-16T12:27:35.476Z,47.99
2016-05-16T12:28:35.650Z,48.01
2016-05-16T12:29:35.653Z,48.11
2016-05-16T12:30:35.484Z,47.91
2016-05-16T12:31:35.675Z,48.01
2016-05-16T12:32:35.677Z,47.43
2016-05-16T12:33:35.523Z,47.81
2016-05-16T12:34:35.697Z,47.53
2016-05-16T12:35:35.810Z,47.72
2016-05-16T12:36:35.718Z,47.63
2016-05-16T12:37:35.722Z,47.43
2016-05-16T12:38:35.740Z,47.43
2016-05-16T12:39:35.742Z,47.43
2016-05-16T12:40:35.745Z,47.53
2016-05-16T12:41:35.763Z,47.72
2016-05-16T12:42:35.782Z,47.63
2016-05-16T12:43:35.784Z,47.53
2016-05-16T12:44:35.787Z,47.53
2016-05-16T12:45:35.805Z,47.63
2016-05-16T12:46:35.808Z,47.72
2016-05-16T12:47:35.826Z,47.43
2016-05-16T12:48:35.813Z,47.72
2016-05-16T12:49:35.691Z,47.91
2016-05-16T12:50:35.693Z,47.43
2016-05-16T12:51:35.869Z,47.43
2016-05-16T12:52:35.886Z,47.33
2016-05-16T12:53:35.890Z,47.63
2016-05-16T12:54:35.893Z,47.72
2016-05-16T12:55:35.910Z,47.81